createdAt,value
2018-07-30T00:00:22.623Z,44.49
2018-07-30T00:02:50.782Z,44.82
2018-07-30T00:05:18.958Z,44.41
2018-07-30T00:07:47.140Z,44.00
2018-07-30T00:10:15.319Z,43.97
2018-07-30T00:12:43.488Z,44.77
2018-07-30T00:15:11.666Z,44.65
2018-07-30T00:17:39.841Z,44.88
2018-07-30T00:20:08.022Z,44.23
2018-07-30T00:22:36.190Z,44.18
2018-07-30T00:25:04.475Z,43.65
2018-07-30T00:27:32.646Z,44.36
2018-07-30T00:30:00.814Z,45.04
2018-07-30T00:32:28.986Z,45.42
2018-07-30T00:34:57.193Z,45.15
2018-07-30T00:37:25.355Z,45.56
2018-07-30T00:39:53.522Z,46.15
2018-07-30T00:42:21.706Z,45.38
2018-07-30T00:44:49.867Z,45.87
2018-07-30T00:47:18.038Z,45.74
2018-07-30T00:49:46.199Z,45.95
2018-07-30T00:52:14.366Z,45.98
2018-07-30T00:54:42.530Z,46.11
2018-07-30T00:57:10.714Z,45.93
2018-07-30T00:59:38.895Z,46.10
2018-07-30T01:02:07.076Z,46.44
2018-07-30T01:04:35.234Z,46.58
2018-07-30T01:07:03.405Z,46.63
2018-07-30T01:09:31.594Z,46.49
2018-07-30T01:12:00.207Z,46.65
2018-07-30T01:14:28.406Z,46.89
2018-07-30T01:16:56.578Z,47.11
2018-07-30T01:19:24.755Z,47.24
2018-07-30T01:21:52.931Z,47.48
2018-07-30T01:24:21.098Z,48.00
2018-07-30T01:26:49.258Z,47.79
2018-07-30T01:29:17.546Z,48.50
2018-07-30T01:31:45.706Z,48.49
2018-07-30T01:34:13.934Z,48.79
2018-07-30T01:36:42.095Z,49.23
2018-07-30T01:39:10.270Z,49.48
2018-07-30T01:41:38.442Z,49.49
2018-07-30T01:44:06.606Z,49.64
2018-07-30T01:46:34.770Z,49.77
2018-07-30T01:49:03.103Z,49.65
2018-07-30T01:51:31.262Z,49.91
2018-07-30T01:53:59.498Z,49.51
2018-07-30T01:56:27.675Z,49.89
2018-07-30T01:58:55.854Z,50.09
2018-07-30T02:01:24.015Z,50.46
2018-07-30T02:03:52.410Z,50.74
2018-07-30T02:06:20.590Z,50.76
2018-07-30T02:08:48.774Z,51.24
2018-07-30T02:11:16.966Z,51.49
2018-07-30T02:13:45.131Z,51.34
2018-07-30T02:16:13.351Z,51.73
2018-07-30T02:18:41.511Z,52.13
2018-07-30T02:21:09.694Z,52.19
2018-07-30T02:23:37.867Z,51.90
2018-07-30T02:26:06.047Z,52.27
2018-07-30T02:28:34.219Z,51.83
2018-07-30T02:31:02.383Z,52.14
2018-07-30T02:33:30.566Z,52.85
2018-07-30T02:35:58.727Z,52.46
2018-07-30T02:38:26.903Z,52.60
2018-07-30T02:40:55.082Z,53.06
2018-07-30T02:43:23.263Z,53.01
2018-07-30T02:45:51.760Z,52.84
2018-07-30T02:48:19.931Z,52.41
2018-07-30T02:50:48.122Z,51.66
2018-07-30T02:53:16.286Z,51.04
2018-07-30T02:55:44.462Z,51.02
2018-07-30T02:58:12.646Z,51.53
2018-07-30T03:00:40.810Z,51.63
2018-07-30T03:03:10.883Z,51.49
2018-07-30T03:05:39.203Z,51.48
2018-07-30T03:08:08.123Z,51.71
2018-07-30T03:10:36.312Z,51.30
2018-07-30T03:13:04.508Z,51.29
2018-07-30T03:15:32.678Z,51.64
2018-07-30T03:18:00.886Z,50.94
2018-07-30T03:20:29.062Z,50.86
2018-07-30T03:22:57.246Z,51.01
2018-07-30T03:25:25.423Z,51.52
2018-07-30T03:27:53.602Z,51.39
2018-07-30T03:30:21.772Z,51.52
2018-07-30T03:32:49.950Z,51.64
2018-07-30T03:35:18.131Z,51.18
2018-07-30T03:37:46.302Z,52.07
2018-07-30T03:40:14.487Z,52.38
2018-07-30T03:42:42.654Z,52.01
2018-07-30T03:45:11.196Z,51.96
2018-07-30T03:47:39.502Z,52.55
2018-07-30T03:50:07.767Z,52.34
2018-07-30T03:52:35.940Z,52.29
2018-07-30T03:55:04.450Z,52.51
2018-07-30T03:57:32.614Z,52.80
2018-07-30T04:00:00.849Z,52.63
2018-07-30T04:02:28.958Z,53.26
2018-07-30T04:04:57.132Z,52.73
2018-07-30T04:07:25.286Z,52.65
2018-07-30T04:09:53.459Z,53.40
2018-07-30T04:12:21.618Z,53.62
2018-07-30T04:14:49.790Z,53.45
2018-07-30T04:17:17.948Z,53.48
2018-07-30T04:19:46.114Z,53.30
2018-07-30T04:22:14.323Z,53.71
2018-07-30T04:24:42.462Z,53.47
2018-07-30T04:27:10.625Z,53.75
2018-07-30T04:29:38.778Z,53.79
2018-07-30T04:32:06.992Z,54.41
2018-07-30T04:34:35.242Z,54.13
2018-07-30T04:37:03.431Z,53.21
2018-07-30T04:39:31.594Z,52.81
2018-07-30T04:41:59.806Z,53.01
2018-07-30T04:44:28.149Z,52.67
2018-07-30T04:46:56.306Z,52.35
2018-07-30T04:49:24.498Z,51.96
2018-07-30T04:51:52.675Z,52.60
2018-07-30T04:54:20.858Z,52.63
2018-07-30T04:56:49.059Z,52.76
2018-07-30T04:59:17.198Z,52.98
2018-07-30T05:01:45.394Z,52.63
2018-07-30T05:04:13.562Z,53.82
2018-07-30T05:06:41.715Z,53.70
2018-07-30T05:09:10.128Z,54.02
2018-07-30T05:11:38.283Z,54.33
2018-07-30T05:14:06.466Z,54.32
2018-07-30T05:16:34.683Z,54.22
2018-07-30T05:19:02.850Z,55.02
2018-07-30T05:21:31.017Z,55.69
2018-07-30T05:23:59.232Z,56.01
2018-07-30T05:26:27.386Z,55.43
2018-07-30T05:28:55.562Z,55.49
2018-07-30T05:31:23.707Z,55.45
2018-07-30T05:33:51.910Z,55.43
2018-07-30T05:36:20.744Z,56.07
2018-07-30T05:38:48.962Z,55.71
2018-07-30T05:41:23.822Z,55.95
2018-07-30T05:43:52.006Z,56.45
2018-07-30T05:46:20.496Z,56.66
2018-07-30T05:48:48.635Z,56.14
2018-07-30T05:51:16.822Z,56.47
2018-07-30T05:53:44.995Z,56.42
2018-07-30T05:56:13.238Z,55.79
2018-07-30T05:58:41.586Z,54.85
2018-07-30T06:01:10.182Z,53.16
2018-07-30T06:03:38.403Z,53.48
2018-07-30T06:06:06.911Z,53.72
2018-07-30T06:08:35.154Z,52.29
2018-07-30T06:11:03.348Z,52.01
2018-07-30T06:13:31.531Z,51.34
2018-07-30T06:15:59.734Z,51.00
2018-07-30T06:18:27.945Z,50.71
2018-07-30T06:20:56.172Z,50.20
2018-07-30T06:23:24.295Z,50.17
2018-07-30T06:25:52.483Z,49.86
2018-07-30T06:28:20.753Z,50.25
2018-07-30T06:30:49.015Z,49.85
2018-07-30T06:33:17.398Z,50.29
2018-07-30T06:35:45.742Z,49.74
2018-07-30T06:38:13.946Z,48.99
2018-07-30T06:40:42.104Z,48.83
2018-07-30T06:43:10.426Z,48.71
2018-07-30T06:45:38.739Z,47.39
2018-07-30T06:48:07.027Z,46.80
2018-07-30T06:50:35.235Z,47.09
2018-07-30T06:53:03.556Z,45.87
2018-07-30T06:55:32.798Z,45.73
2018-07-30T06:58:01.066Z,44.47
2018-07-30T07:00:30.070Z,44.66
2018-07-30T07:02:58.258Z,44.02
2018-07-30T07:05:26.440Z,44.37
2018-07-30T07:07:54.754Z,44.74
2018-07-30T07:10:22.932Z,45.11
2018-07-30T07:12:51.115Z,45.28
2018-07-30T07:15:19.427Z,45.48
2018-07-30T07:17:47.742Z,46.08
2018-07-30T07:20:16.234Z,45.48
2018-07-30T07:22:44.490Z,45.06
2018-07-30T07:25:13.035Z,44.48
2018-07-30T07:27:41.305Z,44.82
2018-07-30T07:30:10.234Z,44.58
2018-07-30T07:32:38.522Z,43.10
2018-07-30T07:35:06.959Z,44.01
2018-07-30T07:37:35.419Z,44.09
2018-07-30T07:40:03.669Z,44.35
2018-07-30T07:42:31.857Z,44.92
2018-07-30T07:45:00.070Z,43.53
2018-07-30T07:47:28.206Z,43.01
2018-07-30T07:49:56.394Z,43.22
2018-07-30T07:52:24.596Z,42.27
2018-07-30T07:54:52.829Z,42.69
2018-07-30T07:57:21.054Z,42.53
2018-07-30T07:59:49.234Z,42.70
2018-07-30T08:02:17.435Z,43.73
2018-07-30T08:04:45.609Z,40.19
2018-07-30T08:07:13.783Z,41.82
2018-07-30T08:09:42.049Z,41.24
2018-07-30T08:12:10.190Z,41.52
2018-07-30T08:14:38.371Z,40.98
2018-07-30T08:17:06.590Z,41.82
2018-07-30T08:19:34.763Z,42.45
2018-07-30T08:22:02.947Z,40.21
2018-07-30T08:24:31.114Z,40.72
2018-07-30T08:26:59.314Z,40.75
2018-07-30T08:29:27.489Z,40.91
2018-07-30T08:31:55.667Z,40.27
2018-07-30T08:34:23.843Z,38.67
2018-07-30T08:36:52.016Z,39.27
2018-07-30T08:39:20.210Z,39.36
2018-07-30T08:41:48.387Z,39.54
2018-07-30T08:44:16.654Z,38.69
2018-07-30T08:46:44.823Z,39.44
2018-07-30T08:49:13.159Z,39.90
2018-07-30T08:51:41.538Z,37.64
2018-07-30T08:54:09.726Z,37.93
2018-07-30T08:56:37.882Z,37.58
2018-07-30T08:59:06.050Z,38.50
2018-07-30T09:01:34.212Z,38.00
2018-07-30T09:04:02.399Z,37.54
2018-07-30T09:06:30.548Z,37.91
2018-07-30T09:08:58.718Z,38.77
2018-07-30T09:11:26.966Z,38.09
2018-07-30T09:13:55.139Z,37.73
2018-07-30T09:16:23.319Z,37.63
2018-07-30T09:18:51.519Z,36.52
2018-07-30T09:21:19.719Z,36.32
2018-07-30T09:23:47.910Z,36.88
2018-07-30T09:26:16.114Z,35.80
2018-07-30T09:28:44.247Z,37.86
2018-07-30T09:31:12.569Z,37.68
2018-07-30T09:33:40.735Z,36.37
2018-07-30T09:36:08.951Z,35.50
2018-07-30T09:38:37.353Z,36.51
2018-07-30T09:41:05.564Z,36.34
2018-07-30T09:43:33.726Z,35.21
2018-07-30T09:46:02.031Z,34.90
2018-07-30T09:48:30.191Z,34.29
2018-07-30T09:50:58.366Z,33.75
2018-07-30T09:53:26.562Z,33.88
2018-07-30T09:55:54.746Z,33.79
2018-07-30T09:58:22.948Z,33.42
2018-07-30T10:00:56.447Z,32.10
2018-07-30T10:03:24.626Z,33.25
2018-07-30T10:05:52.798Z,32.56
2018-07-30T10:08:20.991Z,32.40
2018-07-30T10:10:49.158Z,31.79
2018-07-30T10:13:17.331Z,31.67
2018-07-30T10:15:45.559Z,31.94
2018-07-30T10:18:13.729Z,30.55
2018-07-30T10:20:41.895Z,30.31
2018-07-30T10:23:10.051Z,30.40
2018-07-30T10:25:38.215Z,29.39
2018-07-30T10:28:06.402Z,29.51
2018-07-30T10:30:34.581Z,30.89
2018-07-30T10:33:02.738Z,28.98
2018-07-30T10:35:30.918Z,29.33
2018-07-30T10:37:59.167Z,29.93
2018-07-30T10:40:27.424Z,29.19
2018-07-30T10:42:55.598Z,28.77
2018-07-30T10:45:24.691Z,28.38
2018-07-30T10:47:52.861Z,27.92
2018-07-30T10:50:21.051Z,28.40
2018-07-30T10:52:49.210Z,28.33
2018-07-30T10:55:17.386Z,27.73
2018-07-30T10:57:45.596Z,27.40
2018-07-30T11:00:13.755Z,27.42
2018-07-30T11:02:41.922Z,27.41
2018-07-30T11:05:10.071Z,25.93
2018-07-30T11:07:38.236Z,26.39
2018-07-30T11:10:06.579Z,25.74
2018-07-30T11:12:35.591Z,26.06
2018-07-30T11:15:03.787Z,27.13
2018-07-30T11:17:31.959Z,26.82
2018-07-30T11:20:00.128Z,26.12
2018-07-30T11:22:28.327Z,26.45
2018-07-30T11:24:56.486Z,27.30
2018-07-30T11:27:24.700Z,26.48
2018-07-30T11:29:52.859Z,26.91
2018-07-30T11:32:21.074Z,26.31
2018-07-30T11:34:49.238Z,25.69
2018-07-30T11:37:17.410Z,26.58
2018-07-30T11:39:45.623Z,25.83
2018-07-30T11:42:13.786Z,25.73
2018-07-30T11:44:42.083Z,25.64
2018-07-30T11:47:10.238Z,26.36
2018-07-30T11:49:38.638Z,25.59
2018-07-30T11:52:08.043Z,25.43
2018-07-30T11:54:36.326Z,25.63
2018-07-30T11:57:04.551Z,26.45
2018-07-30T11:59:32.722Z,25.53
2018-07-30T12:02:00.898Z,26.44
2018-07-30T12:04:29.103Z,26.58
2018-07-30T12:06:57.285Z,27.35
2018-07-30T12:09:25.498Z,27.40
2018-07-30T12:11:53.696Z,29.33
2018-07-30T12:14:21.883Z,28.79
2018-07-30T12:16:50.068Z,27.32
2018-07-30T12:19:18.244Z,28.14
2018-07-30T12:21:46.472Z,28.62
2018-07-30T12:24:14.611Z,29.07
2018-07-30T12:26:42.822Z,28.03
2018-07-30T12:29:10.990Z,27.79
2018-07-30T12:31:39.181Z,28.26
2018-07-30T12:34:07.358Z,29.39
2018-07-30T12:36:35.614Z,28.84
2018-07-30T12:39:04.947Z,28.70
2018-07-30T12:41:33.132Z,28.25
2018-07-30T12:44:01.321Z,28.35
2018-07-30T12:46:29.478Z,29.40
2018-07-30T12:48:57.651Z,28.86
2018-07-30T12:51:25.814Z,27.87
2018-07-30T12:53:54.546Z,27.15
2018-07-30T12:56:22.734Z,27.85
2018-07-30T12:58:50.910Z,28.59
2018-07-30T13:01:19.083Z,27.93
2018-07-30T13:03:47.270Z,28.40
2018-07-30T13:06:15.626Z,28.77
2018-07-30T13:08:44.107Z,28.16
2018-07-30T13:11:12.278Z,28.48
2018-07-30T13:13:40.544Z,28.15
2018-07-30T13:16:08.698Z,27.28
2018-07-30T13:18:36.851Z,26.94
2018-07-30T13:21:05.123Z,26.79
2018-07-30T13:23:33.214Z,26.78
2018-07-30T13:26:01.440Z,26.75
2018-07-30T13:28:29.618Z,27.85
2018-07-30T13:30:57.832Z,26.35
2018-07-30T13:33:26.043Z,26.71
2018-07-30T13:35:54.230Z,27.17
2018-07-30T13:38:22.414Z,27.90
2018-07-30T13:40:50.649Z,27.11
2018-07-30T13:43:18.826Z,26.04
2018-07-30T13:45:47.046Z,26.95
2018-07-30T13:48:15.214Z,26.77
2018-07-30T13:50:43.433Z,27.08
2018-07-30T13:53:11.655Z,25.76
2018-07-30T13:55:39.822Z,26.20
2018-07-30T13:58:08.011Z,26.62
2018-07-30T14:00:36.214Z,27.13
2018-07-30T14:03:04.426Z,27.20
2018-07-30T14:05:32.610Z,27.03
2018-07-30T14:08:00.802Z,27.32
2018-07-30T14:10:28.975Z,27.00
2018-07-30T14:12:57.162Z,26.46
2018-07-30T14:15:25.342Z,28.51
2018-07-30T14:17:53.538Z,27.78
2018-07-30T14:20:21.735Z,27.53
2018-07-30T14:22:49.923Z,28.34
2018-07-30T14:25:18.102Z,28.93
2018-07-30T14:27:46.278Z,30.11
2018-07-30T14:30:14.462Z,29.90
2018-07-30T14:32:42.667Z,29.63
2018-07-30T14:35:10.843Z,29.51
2018-07-30T14:37:39.037Z,29.09
2018-07-30T14:40:09.917Z,27.60
2018-07-30T14:42:38.224Z,29.44
2018-07-30T14:45:06.699Z,28.89
2018-07-30T14:47:34.879Z,28.79
2018-07-30T14:50:03.090Z,27.61
2018-07-30T14:52:31.294Z,28.17
2018-07-30T14:54:59.474Z,27.70
2018-07-30T14:57:27.650Z,27.53
2018-07-30T14:59:56.007Z,27.40
2018-07-30T15:02:24.126Z,27.48
2018-07-30T15:04:52.302Z,29.46
2018-07-30T15:07:20.490Z,29.31
2018-07-30T15:09:48.666Z,28.40
2018-07-30T15:12:16.947Z,27.70
2018-07-30T15:14:45.063Z,27.87
2018-07-30T15:17:13.242Z,28.81
2018-07-30T15:19:41.431Z,28.32
2018-07-30T15:22:09.602Z,27.86
2018-07-30T15:24:37.802Z,29.04
2018-07-30T15:27:06.627Z,28.24
2018-07-30T15:29:34.818Z,28.40
2018-07-30T15:32:03.010Z,31.89
2018-07-30T15:34:31.212Z,30.85
2018-07-30T15:36:59.390Z,30.96
2018-07-30T15:39:27.575Z,30.83
2018-07-30T15:41:55.762Z,30.06
2018-07-30T15:44:23.987Z,30.80
2018-07-30T15:46:52.217Z,30.85
2018-07-30T15:49:20.447Z,28.39
2018-07-30T15:51:48.641Z,30.41
2018-07-30T15:54:17.003Z,29.54
2018-07-30T15:56:45.202Z,29.44
2018-07-30T15:59:14.501Z,28.52
2018-07-30T16:01:42.730Z,30.71
2018-07-30T16:04:10.983Z,28.77
2018-07-30T16:06:39.201Z,27.68
2018-07-30T16:09:07.898Z,28.87
2018-07-30T16:11:36.738Z,27.92
2018-07-30T16:14:04.930Z,26.76
2018-07-30T16:16:33.146Z,27.47
2018-07-30T16:19:01.342Z,27.05
2018-07-30T16:21:29.904Z,27.12
2018-07-30T16:23:58.247Z,28.41
2018-07-30T16:26:26.806Z,26.51
2018-07-30T16:28:55.102Z,29.14
2018-07-30T16:31:23.493Z,27.53
2018-07-30T16:33:51.914Z,27.45
2018-07-30T16:36:20.281Z,27.18
2018-07-30T16:38:48.754Z,27.31
2018-07-30T16:41:17.002Z,26.91
2018-07-30T16:43:45.542Z,27.24
2018-07-30T16:46:13.800Z,26.98
2018-07-30T16:48:42.179Z,27.38
2018-07-30T16:51:10.408Z,27.95
2018-07-30T16:53:38.626Z,27.35
2018-07-30T16:56:06.809Z,27.44
2018-07-30T16:58:35.049Z,28.00
2018-07-30T17:01:03.446Z,28.27
2018-07-30T17:03:31.635Z,28.67
2018-07-30T17:05:59.851Z,28.50
2018-07-30T17:08:28.076Z,28.87
2018-07-30T17:10:56.251Z,27.97
2018-07-30T17:13:24.443Z,28.04
2018-07-30T17:15:52.706Z,27.93
2018-07-30T17:18:21.221Z,31.20
2018-07-30T17:20:49.722Z,29.11
2018-07-30T17:23:18.049Z,29.81
2018-07-30T17:25:46.548Z,29.30
2018-07-30T17:28:15.059Z,29.46
2018-07-30T17:30:43.452Z,29.04
2018-07-30T17:33:12.150Z,28.70
2018-07-30T17:35:40.358Z,28.98
2018-07-30T17:38:08.575Z,29.38
2018-07-30T17:40:36.732Z,29.30
2018-07-30T17:43:04.895Z,28.82
2018-07-30T17:45:33.098Z,28.94
2018-07-30T17:48:01.276Z,29.56
2018-07-30T17:50:29.478Z,30.17
2018-07-30T17:52:57.655Z,29.50
2018-07-30T17:55:25.823Z,29.45
2018-07-30T17:57:53.998Z,29.92
2018-07-30T18:00:22.166Z,29.88
2018-07-30T18:02:50.346Z,31.96
2018-07-30T18:05:21.116Z,31.31
2018-07-30T18:07:50.653Z,30.29
2018-07-30T18:10:18.986Z,29.87
2018-07-30T18:12:47.757Z,30.75
2018-07-30T18:15:16.109Z,30.48
2018-07-30T18:17:44.579Z,30.43
2018-07-30T18:20:13.870Z,30.79
2018-07-30T18:22:42.786Z,30.02
2018-07-30T18:25:11.400Z,30.21
2018-07-30T18:27:39.702Z,30.38
2018-07-30T18:30:07.979Z,30.54
2018-07-30T18:32:36.291Z,31.56
2018-07-30T18:35:04.761Z,32.92
2018-07-30T18:37:32.931Z,30.66
2018-07-30T18:40:01.174Z,31.84
2018-07-30T18:42:31.362Z,30.70
2018-07-30T18:44:59.618Z,31.61
2018-07-30T18:47:27.818Z,31.88
2018-07-30T18:49:56.058Z,31.91
2018-07-30T18:52:24.348Z,31.67
2018-07-30T18:54:52.534Z,32.18
2018-07-30T18:57:20.866Z,33.75
2018-07-30T18:59:49.043Z,33.05
2018-07-30T19:02:17.260Z,33.96
2018-07-30T19:04:45.452Z,34.17
2018-07-30T19:07:13.615Z,35.47
2018-07-30T19:09:41.798Z,36.82
2018-07-30T19:12:09.991Z,37.28
2018-07-30T19:14:38.319Z,37.00
2018-07-30T19:17:06.502Z,36.19
2018-07-30T19:22:37.230Z,37.97
2018-07-30T19:25:05.482Z,37.12
2018-07-30T19:27:41.950Z,34.68
2018-07-30T19:30:10.242Z,37.25
2018-07-30T19:32:38.954Z,35.05
2018-07-30T19:35:07.463Z,37.27
2018-07-30T19:37:35.694Z,38.06
2018-07-30T19:40:04.315Z,38.72
2018-07-30T19:42:32.610Z,40.17
2018-07-30T19:45:00.856Z,40.82
2018-07-30T19:47:29.895Z,40.76
2018-07-30T19:49:58.062Z,40.40
2018-07-30T19:52:26.234Z,40.63
2018-07-30T19:54:54.442Z,41.09
2018-07-30T19:57:22.680Z,41.17
2018-07-30T19:59:50.807Z,41.01
2018-07-30T20:02:18.995Z,41.27
2018-07-30T20:04:47.206Z,41.32
2018-07-30T20:07:15.416Z,42.40
2018-07-30T20:09:43.605Z,42.61
2018-07-30T20:12:11.886Z,43.13
2018-07-30T20:14:40.095Z,43.71
2018-07-30T20:17:08.320Z,43.22
2018-07-30T20:19:36.499Z,43.70
2018-07-30T20:22:04.727Z,44.50
2018-07-30T20:24:34.217Z,44.04
2018-07-30T20:27:02.408Z,44.53
2018-07-30T20:29:30.730Z,44.19
2018-07-30T20:31:58.921Z,44.63
2018-07-30T20:34:27.107Z,44.36
2018-07-30T20:36:55.319Z,44.55
2018-07-30T20:39:23.491Z,44.67
2018-07-30T20:41:51.698Z,45.29
2018-07-30T20:44:19.935Z,43.29
2018-07-30T20:46:49.142Z,44.65
2018-07-30T20:49:17.347Z,44.51
2018-07-30T20:51:45.564Z,45.06
2018-07-30T20:54:13.768Z,44.91
2018-07-30T20:56:41.962Z,44.91
2018-07-30T20:59:10.177Z,44.98
2018-07-30T21:01:38.487Z,44.62
2018-07-30T21:04:06.807Z,45.32
2018-07-30T21:06:35.062Z,45.92
2018-07-30T21:09:03.363Z,45.97
2018-07-30T21:11:31.824Z,45.23
2018-07-30T21:14:00.206Z,45.59
2018-07-30T21:16:28.427Z,45.41
2018-07-30T21:18:56.626Z,45.61
2018-07-30T21:21:24.827Z,45.54
2018-07-30T21:23:53.012Z,45.47
2018-07-30T21:26:21.210Z,45.43
2018-07-30T21:28:49.417Z,46.13
2018-07-30T21:31:17.610Z,46.27
2018-07-30T21:33:45.815Z,46.04
2018-07-30T21:36:14.002Z,46.22
2018-07-30T21:38:42.230Z,45.68
2018-07-30T21:41:10.406Z,45.92
2018-07-30T21:43:38.600Z,46.57
2018-07-30T21:46:06.783Z,45.89
2018-07-30T21:48:35.039Z,46.13
2018-07-30T21:51:03.239Z,46.42
2018-07-30T21:53:31.435Z,46.50
2018-07-30T21:55:59.638Z,47.41
2018-07-30T21:58:28.098Z,47.09
2018-07-30T22:00:57.402Z,47.86
2018-07-30T22:03:25.979Z,46.79
2018-07-30T22:05:57.653Z,46.02
2018-07-30T22:08:26.425Z,46.83
2018-07-30T22:10:54.610Z,47.11
2018-07-30T22:13:22.799Z,46.82
2018-07-30T22:15:50.998Z,47.33
2018-07-30T22:18:19.294Z,47.65
2018-07-30T22:20:47.531Z,47.31
2018-07-30T22:23:15.984Z,46.77
2018-07-30T22:25:44.162Z,47.17
2018-07-30T22:28:12.367Z,46.97
2018-07-30T22:30:40.564Z,46.76
2018-07-30T22:33:08.747Z,46.85
2018-07-30T22:35:36.948Z,46.37
2018-07-30T22:38:05.411Z,46.54
2018-07-30T22:40:33.607Z,47.19
2018-07-30T22:43:01.879Z,46.05
2018-07-30T22:45:30.119Z,45.21
2018-07-30T22:47:58.318Z,44.46
2018-07-30T22:50:26.583Z,45.13
2018-07-30T22:52:54.766Z,45.69
2018-07-30T22:55:22.971Z,45.18
2018-07-30T22:57:51.157Z,44.78
2018-07-30T23:00:19.346Z,44.06
2018-07-30T23:02:47.526Z,43.99
2018-07-30T23:05:15.855Z,45.04
2018-07-30T23:07:44.037Z,44.13
2018-07-30T23:10:12.262Z,44.70
2018-07-30T23:12:40.457Z,44.82
2018-07-30T23:15:08.654Z,45.60
2018-07-30T23:17:36.842Z,46.46
2018-07-30T23:20:05.368Z,46.76
2018-07-30T23:22:33.559Z,46.66
2018-07-30T23:25:01.747Z,46.92
2018-07-30T23:27:29.923Z,46.69
2018-07-30T23:29:58.161Z,47.09
2018-07-30T23:32:26.604Z,47.03
2018-07-30T23:34:54.811Z,46.67
2018-07-30T23:37:23.194Z,46.63
2018-07-30T23:39:51.266Z,45.27
2018-07-30T23:42:19.454Z,46.62
2018-07-30T23:44:47.771Z,45.98
2018-07-30T23:47:15.975Z,45.63
2018-07-30T23:49:44.176Z,47.21
2018-07-30T23:52:12.383Z,47.19
2018-07-30T23:54:40.582Z,47.94
2018-07-30T23:57:08.787Z,48.05
2018-07-30T23:59:36.999Z,48.27
